sensor_id;sensor_type;location;lat;lon;timestamp;pressure;altitude;pressure_sealevel;temperature;humidity
15272;BME280;7737;51.578;7.268;2022-12-20T00:02:10;101005.88;;;11.13;100.00
15272;BME280;7737;51.578;7.268;2022-12-20T00:04:37;101004.44;;;11.25;100.00
15272;BME280;7737;51.578;7.268;2022-12-20T00:07:03;101001.97;;;11.20;100.00
15272;BME280;7737;51.578;7.268;2022-12-20T00:09:30;101006.59;;;11.17;100.00
15272;BME280;7737;51.578;7.268;2022-12-20T00:11:56;101009.66;;;11.26;100.00
15272;BME280;7737;51.578;7.268;2022-12-20T00:14:24;101012.03;;;11.32;100.00
15272;BME280;7737;51.578;7.268;2022-12-20T00:16:51;101010.59;;;11.25;100.00
15272;BME280;7737;51.578;7.268;2022-12-20T00:19:21;101002.94;;;11.19;100.00
15272;BME280;7737;51.578;7.268;2022-12-20T00:21:47;100997.88;;;11.13;100.00
15272;BME280;7737;51.578;7.268;2022-12-20T00:24:14;100989.31;;;11.25;100.00
15272;BME280;7737;51.578;7.268;2022-12-20T00:26:40;100977.31;;;11.35;100.00
15272;BME280;7737;51.578;7.268;2022-12-20T00:29:07;100980.75;;;11.37;100.00
15272;BME280;7737;51.578;7.268;2022-12-20T00:31:37;100973.69;;;11.36;100.00
15272;BME280;7737;51.578;7.268;2022-12-20T00:34:04;100957.56;;;11.39;100.00
15272;BME280;7737;51.578;7.268;2022-12-20T00:36:32;100945.38;;;11.35;100.00
15272;BME280;7737;51.578;7.268;2022-12-20T00:39:00;100955.06;;;11.36;100.00
15272;BME280;7737;51.578;7.268;2022-12-20T00:41:28;100949.72;;;11.36;100.00
15272;BME280;7737;51.578;7.268;2022-12-20T00:43:55;100953.13;;;11.40;100.00
15272;BME280;7737;51.578;7.268;2022-12-20T00:46:22;100958.66;;;11.35;100.00
15272;BME280;7737;51.578;7.268;2022-12-20T00:48:51;100952.47;;;11.35;100.00
15272;BME280;7737;51.578;7.268;2022-12-20T00:51:19;100953.56;;;11.31;100.00
15272;BME280;7737;51.578;7.268;2022-12-20T00:53:46;100944.25;;;11.39;100.00
15272;BME280;7737;51.578;7.268;2022-12-20T00:56:13;100952.25;;;11.39;100.00
15272;BME280;7737;51.578;7.268;2022-12-20T00:58:41;100951.31;;;11.40;100.00
15272;BME280;7737;51.578;7.268;2022-12-20T01:01:15;100943.88;;;11.30;100.00
15272;BME280;7737;51.578;7.268;2022-12-20T01:03:41;100957.56;;;11.39;100.00
15272;BME280;7737;51.578;7.268;2022-12-20T01:06:10;100936.47;;;11.53;100.00
15272;BME280;7737;51.578;7.268;2022-12-20T01:08:37;100940.06;;;11.52;100.00
15272;BME280;7737;51.578;7.268;2022-12-20T01:11:06;100941.22;;;11.47;100.00
15272;BME280;7737;51.578;7.268;2022-12-20T01:13:36;100929.69;;;11.46;100.00
15272;BME280;7737;51.578;7.268;2022-12-20T01:16:04;100935.84;;;11.66;100.00
15272;BME280;7737;51.578;7.268;2022-12-20T01:18:31;100942.88;;;11.49;100.00
15272;BME280;7737;51.578;7.268;2022-12-20T01:21:02;100932.41;;;11.63;100.00
15272;BME280;7737;51.578;7.268;2022-12-20T01:23:30;100930.13;;;11.56;100.00
15272;BME280;7737;51.578;7.268;2022-12-20T01:25:58;100923.69;;;11.60;100.00
15272;BME280;7737;51.578;7.268;2022-12-20T01:28:25;100921.41;;;11.52;100.00
15272;BME280;7737;51.578;7.268;2022-12-20T01:30:51;100922.41;;;11.69;100.00
15272;BME280;7737;51.578;7.268;2022-12-20T01:33:18;100917.06;;;11.69;100.00
15272;BME280;7737;51.578;7.268;2022-12-20T01:35:54;100914.88;;;11.59;100.00
15272;BME280;7737;51.578;7.268;2022-12-20T01:38:21;100921.75;;;11.63;100.00
15272;BME280;7737;51.578;7.268;2022-12-20T01:40:48;100904.53;;;11.71;100.00
15272;BME280;7737;51.578;7.268;2022-12-20T01:43:17;100919.59;;;11.72;100.00
15272;BME280;7737;51.578;7.268;2022-12-20T01:45:44;100923.19;;;11.71;100.00
15272;BME280;7737;51.578;7.268;2022-12-20T01:48:12;100919.00;;;11.65;100.00
15272;BME280;7737;51.578;7.268;2022-12-20T01:50:40;100914.88;;;11.59;100.00
15272;BME280;7737;51.578;7.268;2022-12-20T01:53:07;100912.25;;;11.58;100.00
15272;BME280;7737;51.578;7.268;2022-12-20T01:55:35;100919.59;;;11.72;100.00
15272;BME280;7737;51.578;7.268;2022-12-20T01:58:05;100909.19;;;11.66;100.00
15272;BME280;7737;51.578;7.268;2022-12-20T02:00:33;100907.94;;;11.55;100.00
15272;BME280;7737;51.578;7.268;2022-12-20T02:03:03;100908.53;;;11.62;100.00
15272;BME280;7737;51.578;7.268;2022-12-20T02:05:33;100907.19;;;11.71;100.00
15272;BME280;7737;51.578;7.268;2022-12-20T02:08:00;100907.13;;;11.72;100.00
15272;BME280;7737;51.578;7.268;2022-12-20T02:10:34;100899.22;;;11.71;100.00
15272;BME280;7737;51.578;7.268;2022-12-20T02:13:08;100895.06;;;11.82;100.00
15272;BME280;7737;51.578;7.268;2022-12-20T02:15:44;100892.81;;;11.75;100.00
15272;BME280;7737;51.578;7.268;2022-12-20T02:18:20;100890.75;;;11.80;100.00
15272;BME280;7737;51.578;7.268;2022-12-20T02:20:58;100896.38;;;11.74;100.00
15272;BME280;7737;51.578;7.268;2022-12-20T02:29:57;100872.41;;;11.91;100.00
15272;BME280;7737;51.578;7.268;2022-12-20T02:32:30;100880.88;;;11.82;100.00
15272;BME280;7737;51.578;7.268;2022-12-20T02:34:58;100871.19;;;11.81;100.00
15272;BME280;7737;51.578;7.268;2022-12-20T02:37:25;100894.13;;;11.83;100.00
15272;BME280;7737;51.578;7.268;2022-12-20T02:39:51;100883.69;;;11.79;100.00
15272;BME280;7737;51.578;7.268;2022-12-20T02:42:21;100886.59;;;11.74;100.00
15272;BME280;7737;51.578;7.268;2022-12-20T02:44:51;100886.00;;;11.68;100.00
15272;BME280;7737;51.578;7.268;2022-12-20T02:47:39;100885.75;;;11.74;100.00
15272;BME280;7737;51.578;7.268;2022-12-20T02:50:08;100895.53;;;11.73;100.00
15272;BME280;7737;51.578;7.268;2022-12-20T02:52:36;100897.69;;;11.65;100.00
15272;BME280;7737;51.578;7.268;2022-12-20T02:55:04;100896.66;;;11.68;100.00
15272;BME280;7737;51.578;7.268;2022-12-20T02:57:37;100889.88;;;11.62;100.00
15272;BME280;7737;51.578;7.268;2022-12-20T03:00:08;100883.06;;;11.56;100.00
15272;BME280;7737;51.578;7.268;2022-12-20T03:02:38;100885.78;;;11.55;100.00
15272;BME280;7737;51.578;7.268;2022-12-20T03:05:25;100882.75;;;11.45;100.00
15272;BME280;7737;51.578;7.268;2022-12-20T03:07:52;100875.78;;;11.43;100.00
15272;BME280;7737;51.578;7.268;2022-12-20T03:10:19;100890.25;;;11.54;100.00
15272;BME280;7737;51.578;7.268;2022-12-20T03:12:45;100896.34;;;11.39;100.00
15272;BME280;7737;51.578;7.268;2022-12-20T03:15:12;100906.84;;;11.42;100.00
15272;BME280;7737;51.578;7.268;2022-12-20T03:17:40;100899.63;;;11.44;100.00
15272;BME280;7737;51.578;7.268;2022-12-20T03:20:08;100909.03;;;11.34;100.00
15272;BME280;7737;51.578;7.268;2022-12-20T03:22:35;100909.81;;;11.36;100.00
15272;BME280;7737;51.578;7.268;2022-12-20T03:25:03;100914.16;;;11.20;100.00
15272;BME280;7737;51.578;7.268;2022-12-20T03:27:29;100918.84;;;11.15;100.00
15272;BME280;7737;51.578;7.268;2022-12-20T03:29:56;100933.53;;;11.05;100.00
15272;BME280;7737;51.578;7.268;2022-12-20T03:32:22;100933.69;;;11.02;100.00
15272;BME280;7737;51.578;7.268;2022-12-20T03:34:50;100939.78;;;11.04;100.00
15272;BME280;7737;51.578;7.268;2022-12-20T03:37:16;100941.00;;;10.97;100.00
15272;BME280;7737;51.578;7.268;2022-12-20T03:39:43;100944.91;;;10.90;100.00
15272;BME280;7737;51.578;7.268;2022-12-20T03:42:09;100935.97;;;10.91;100.00
15272;BME280;7737;51.578;7.268;2022-12-20T03:44:36;100940.88;;;10.81;100.00
15272;BME280;7737;51.578;7.268;2022-12-20T03:47:03;100938.31;;;10.80;100.00
15272;BME280;7737;51.578;7.268;2022-12-20T03:49:30;100933.78;;;10.82;100.00
15272;BME280;7737;51.578;7.268;2022-12-20T03:51:58;100918.88;;;10.78;100.00
15272;BME280;7737;51.578;7.268;2022-12-20T03:54:24;100920.34;;;10.85;100.00
15272;BME280;7737;51.578;7.268;2022-12-20T03:56:51;100915.56;;;10.73;100.00
15272;BME280;7737;51.578;7.268;2022-12-20T03:59:17;100915.44;;;10.76;100.00
15272;BME280;7737;51.578;7.268;2022-12-20T04:01:43;100915.56;;;10.73;100.00
15272;BME280;7737;51.578;7.268;2022-12-20T04:04:12;100914.06;;;10.67;100.00
15272;BME280;7737;51.578;7.268;2022-12-20T04:06:39;100908.56;;;10.72;100.00
15272;BME280;7737;51.578;7.268;2022-12-20T04:09:07;100906.94;;;10.68;100.00
15272;BME280;7737;51.578;7.268;2022-12-20T04:11:34;100907.69;;;10.71;100.00
15272;BME280;7737;51.578;7.268;2022-12-20T04:14:00;100901.78;;;10.83;100.00
15272;BME280;7737;51.578;7.268;2022-12-20T04:16:28;100897.03;;;10.71;100.00
15272;BME280;7737;51.578;7.268;2022-12-20T04:18:55;100895.13;;;10.75;100.00
15272;BME280;7737;51.578;7.268;2022-12-20T04:21:23;100894.44;;;10.70;100.00
15272;BME280;7737;51.578;7.268;2022-12-20T04:23:50;100900.22;;;10.61;100.00
15272;BME280;7737;51.578;7.268;2022-12-20T04:26:18;100899.06;;;10.66;100.00
15272;BME280;7737;51.578;7.268;2022-12-20T04:28:45;100895.44;;;10.67;100.00
15272;BME280;7737;51.578;7.268;2022-12-20T04:31:11;100889.50;;;10.62;100.00
15272;BME280;7737;51.578;7.268;2022-12-20T04:33:38;100896.59;;;10.62;100.00
15272;BME280;7737;51.578;7.268;2022-12-20T04:36:05;100899.34;;;10.60;100.00
15272;BME280;7737;51.578;7.268;2022-12-20T04:38:32;100892.72;;;10.50;100.00
15272;BME280;7737;51.578;7.268;2022-12-20T04:40:58;100899.06;;;10.48;100.00
15272;BME280;7737;51.578;7.268;2022-12-20T04:43:26;100891.09;;;10.48;100.00
15272;BME280;7737;51.578;7.268;2022-12-20T04:45:54;100889.06;;;10.53;100.00
15272;BME280;7737;51.578;7.268;2022-12-20T04:48:22;100884.69;;;10.52;100.00
15272;BME280;7737;51.578;7.268;2022-12-20T04:50:51;100890.84;;;10.52;100.00
15272;BME280;7737;51.578;7.268;2022-12-20T04:53:18;100897.97;;;10.52;100.00
15272;BME280;7737;51.578;7.268;2022-12-20T04:56:03;100891.94;;;10.48;100.00
15272;BME280;7737;51.578;7.268;2022-12-20T04:58:31;100886.69;;;10.47;100.00
15272;BME280;7737;51.578;7.268;2022-12-20T05:00:57;100895.63;;;10.46;100.00
15272;BME280;7737;51.578;7.268;2022-12-20T05:03:24;100901.94;;;10.43;100.00
15272;BME280;7737;51.578;7.268;2022-12-20T05:05:51;100905.56;;;10.40;100.00
15272;BME280;7737;51.578;7.268;2022-12-20T05:08:18;100914.50;;;10.39;100.00
15272;BME280;7737;51.578;7.268;2022-12-20T05:10:46;100916.00;;;10.45;100.00
15272;BME280;7737;51.578;7.268;2022-12-20T05:13:12;100900.44;;;10.56;100.00
15272;BME280;7737;51.578;7.268;2022-12-20T05:15:40;100891.88;;;10.50;100.00
15272;BME280;7737;51.578;7.268;2022-12-20T05:18:07;100892.88;;;10.47;100.00
15272;BME280;7737;51.578;7.268;2022-12-20T05:20:33;100893.59;;;10.32;100.00
15272;BME280;7737;51.578;7.268;2022-12-20T05:23:00;100893.75;;;10.48;100.00
15272;BME280;7737;51.578;7.268;2022-12-20T05:25:46;100892.13;;;10.44;100.00
15272;BME280;7737;51.578;7.268;2022-12-20T05:28:30;100888.69;;;10.42;100.00
15272;BME280;7737;51.578;7.268;2022-12-20T05:30:59;100885.69;;;10.49;100.00
15272;BME280;7737;51.578;7.268;2022-12-20T05:33:25;100877.84;;;10.46;100.00
15272;BME280;7737;51.578;7.268;2022-12-20T05:35:53;100875.34;;;10.43;100.00
15272;BME280;7737;51.578;7.268;2022-12-20T05:38:19;100876.19;;;10.44;100.00
15272;BME280;7737;51.578;7.268;2022-12-20T05:40:47;100867.16;;;10.48;100.00
15272;BME280;7737;51.578;7.268;2022-12-20T05:43:14;100854.09;;;10.43;100.00
15272;BME280;7737;51.578;7.268;2022-12-20T05:45:44;100860.97;;;10.47;100.00
15272;BME280;7737;51.578;7.268;2022-12-20T05:48:12;100858.53;;;10.43;100.00
15272;BME280;7737;51.578;7.268;2022-12-20T05:50:39;100846.03;;;10.45;100.00
15272;BME280;7737;51.578;7.268;2022-12-20T05:53:05;100853.22;;;10.43;100.00
15272;BME280;7737;51.578;7.268;2022-12-20T05:55:32;100848.06;;;10.39;100.00
15272;BME280;7737;51.578;7.268;2022-12-20T05:57:58;100857.25;;;10.32;100.00
15272;BME280;7737;51.578;7.268;2022-12-20T06:00:24;100849.84;;;10.39;100.00
15272;BME280;7737;51.578;7.268;2022-12-20T06:02:51;100847.19;;;10.39;100.00
15272;BME280;7737;51.578;7.268;2022-12-20T06:05:19;100848.09;;;10.38;100.00
15272;BME280;7737;51.578;7.268;2022-12-20T06:07:45;100848.31;;;10.33;100.00
15272;BME280;7737;51.578;7.268;2022-12-20T06:10:13;100851.78;;;10.35;100.00
15272;BME280;7737;51.578;7.268;2022-12-20T06:12:39;100840.31;;;10.35;100.00
15272;BME280;7737;51.578;7.268;2022-12-20T06:15:07;100843.75;;;10.37;100.00
15272;BME280;7737;51.578;7.268;2022-12-20T06:17:35;100841.78;;;10.40;100.00
15272;BME280;7737;51.578;7.268;2022-12-20T06:20:02;100843.59;;;10.40;100.00
15272;BME280;7737;51.578;7.268;2022-12-20T06:22:30;100833.03;;;10.38;100.00
15272;BME280;7737;51.578;7.268;2022-12-20T06:24:57;100832.88;;;10.42;100.00
15272;BME280;7737;51.578;7.268;2022-12-20T06:27:24;100834.53;;;10.44;100.00
15272;BME280;7737;51.578;7.268;2022-12-20T06:29:50;100832.84;;;10.43;100.00
15272;BME280;7737;51.578;7.268;2022-12-20T06:32:18;100834.13;;;10.34;100.00
15272;BME280;7737;51.578;7.268;2022-12-20T06:34:45;100825.50;;;10.48;100.00
15272;BME280;7737;51.578;7.268;2022-12-20T06:37:12;100836.97;;;10.49;100.00
15272;BME280;7737;51.578;7.268;2022-12-20T06:39:40;100837.16;;;10.46;100.00
15272;BME280;7737;51.578;7.268;2022-12-20T06:42:06;100839.34;;;10.55;100.00
15272;BME280;7737;51.578;7.268;2022-12-20T06:44:32;100841.28;;;10.51;100.00
15272;BME280;7737;51.578;7.268;2022-12-20T06:47:00;100831.47;;;10.53;100.00
15272;BME280;7737;51.578;7.268;2022-12-20T06:49:26;100832.38;;;10.52;100.00
15272;BME280;7737;51.578;7.268;2022-12-20T06:51:54;100819.03;;;10.54;100.00
15272;BME280;7737;51.578;7.268;2022-12-20T06:54:20;100819.72;;;10.57;100.00
15272;BME280;7737;51.578;7.268;2022-12-20T06:56:48;100817.06;;;10.76;100.00
15272;BME280;7737;51.578;7.268;2022-12-20T06:59:15;100810.97;;;10.55;100.00
15272;BME280;7737;51.578;7.268;2022-12-20T07:01:42;100810.97;;;10.55;100.00
15272;BME280;7737;51.578;7.268;2022-12-20T07:04:08;100798.19;;;10.63;100.00
15272;BME280;7737;51.578;7.268;2022-12-20T07:06:35;100798.19;;;10.63;100.00
15272;BME280;7737;51.578;7.268;2022-12-20T07:09:02;100797.88;;;10.69;100.00
15272;BME280;7737;51.578;7.268;2022-12-20T07:11:29;100807.94;;;10.63;100.00
15272;BME280;7737;51.578;7.268;2022-12-20T07:13:57;100797.16;;;10.66;100.00
15272;BME280;7737;51.578;7.268;2022-12-20T07:16:23;100790.97;;;10.65;100.00
15272;BME280;7737;51.578;7.268;2022-12-20T07:18:51;100791.47;;;10.73;100.00
15272;BME280;7737;51.578;7.268;2022-12-20T07:21:18;100779.34;;;10.68;100.00
15272;BME280;7737;51.578;7.268;2022-12-20T07:23:45;100778.03;;;10.76;100.00
15272;BME280;7737;51.578;7.268;2022-12-20T07:26:13;100790.13;;;10.65;100.00
15272;BME280;7737;51.578;7.268;2022-12-20T07:28:41;100783.97;;;10.64;100.00
15272;BME280;7737;51.578;7.268;2022-12-20T07:31:09;100789.75;;;10.72;100.00
15272;BME280;7737;51.578;7.268;2022-12-20T07:33:36;100780.97;;;10.70;100.00
15272;BME280;7737;51.578;7.268;2022-12-20T07:36:04;100789.97;;;10.68;100.00
15272;BME280;7737;51.578;7.268;2022-12-20T07:38:31;100771.59;;;10.63;100.00
15272;BME280;7737;51.578;7.268;2022-12-20T07:40:58;100768.94;;;10.80;100.00
15272;BME280;7737;51.578;7.268;2022-12-20T07:43:24;100783.59;;;10.72;100.00
15272;BME280;7737;51.578;7.268;2022-12-20T07:45:53;100780.59;;;10.78;100.00
15272;BME280;7737;51.578;7.268;2022-12-20T07:48:21;100773.44;;;10.80;100.00
15272;BME280;7737;51.578;7.268;2022-12-20T07:50:48;100773.25;;;10.83;100.00
15272;BME280;7737;51.578;7.268;2022-12-20T07:53:16;100772.63;;;10.78;100.00
15272;BME280;7737;51.578;7.268;2022-12-20T07:55:43;100770.59;;;10.83;100.00
15272;BME280;7737;51.578;7.268;2022-12-20T07:58:10;100773.09;;;10.86;100.00
15272;BME280;7737;51.578;7.268;2022-12-20T08:00:38;100769.53;;;10.87;100.00
15272;BME280;7737;51.578;7.268;2022-12-20T08:03:07;100762.16;;;10.92;100.00
15272;BME280;7737;51.578;7.268;2022-12-20T08:05:40;100758.75;;;10.90;100.00
15272;BME280;7737;51.578;7.268;2022-12-20T08:08:09;100754.53;;;11.03;100.00
15272;BME280;7737;51.578;7.268;2022-12-20T08:10:36;100753.88;;;11.15;100.00
15272;BME280;7737;51.578;7.268;2022-12-20T08:13:03;100761.38;;;11.07;100.00
15272;BME280;7737;51.578;7.268;2022-12-20T08:15:30;100784.41;;;11.08;100.00
15272;BME280;7737;51.578;7.268;2022-12-20T08:18:00;100770.47;;;11.03;100.00
15272;BME280;7737;51.578;7.268;2022-12-20T08:20:27;100760.56;;;11.07;100.00
15272;BME280;7737;51.578;7.268;2022-12-20T08:22:55;100770.00;;;11.12;100.00
15272;BME280;7737;51.578;7.268;2022-12-20T08:25:21;100764.84;;;11.09;100.00
15272;BME280;7737;51.578;7.268;2022-12-20T08:27:48;100754.22;;;11.09;100.00
15272;BME280;7737;51.578;7.268;2022-12-20T08:30:15;100761.25;;;11.10;100.00
15272;BME280;7737;51.578;7.268;2022-12-20T08:32:41;100741.38;;;11.17;100.00
15272;BME280;7737;51.578;7.268;2022-12-20T08:35:08;100736.84;;;11.19;100.00
15272;BME280;7737;51.578;7.268;2022-12-20T08:37:34;100737.91;;;11.15;100.00
15272;BME280;7737;51.578;7.268;2022-12-20T08:40:03;100739.91;;;11.12;100.00
15272;BME280;7737;51.578;7.268;2022-12-20T08:42:29;100745.44;;;11.07;100.00
15272;BME280;7737;51.578;7.268;2022-12-20T08:44:57;100737.22;;;11.12;100.00
15272;BME280;7737;51.578;7.268;2022-12-20T08:47:24;100737.75;;;11.18;100.00
15272;BME280;7737;51.578;7.268;2022-12-20T08:49:50;100728.84;;;11.19;100.00
15272;BME280;7737;51.578;7.268;2022-12-20T08:52:17;100732.28;;;11.21;100.00
15272;BME280;7737;51.578;7.268;2022-12-20T08:54:43;100737.31;;;11.27;100.00
15272;BME280;7737;51.578;7.268;2022-12-20T08:57:11;100739.09;;;11.27;100.00
15272;BME280;7737;51.578;7.268;2022-12-20T08:59:38;100743.72;;;11.23;100.00
15272;BME280;7737;51.578;7.268;2022-12-20T09:02:04;100741.75;;;11.27;100.00
15272;BME280;7737;51.578;7.268;2022-12-20T09:04:31;100745.19;;;11.29;100.00
15272;BME280;7737;51.578;7.268;2022-12-20T09:06:58;100742.13;;;11.36;100.00
15272;BME280;7737;51.578;7.268;2022-12-20T09:09:24;100727.56;;;11.43;100.00
15272;BME280;7737;51.578;7.268;2022-12-20T09:11:51;100733.81;;;11.42;100.00
15272;BME280;7737;51.578;7.268;2022-12-20T09:14:20;100742.69;;;11.43;100.00
15272;BME280;7737;51.578;7.268;2022-12-20T09:16:46;100732.41;;;11.52;100.00
15272;BME280;7737;51.578;7.268;2022-12-20T09:19:15;100723.47;;;11.53;100.00
15272;BME280;7737;51.578;7.268;2022-12-20T09:21:41;100728.63;;;11.56;100.00
15272;BME280;7737;51.578;7.268;2022-12-20T09:24:10;100727.06;;;11.52;100.00
15272;BME280;7737;51.578;7.268;2022-12-20T09:26:36;100738.78;;;11.66;100.00
15272;BME280;7737;51.578;7.268;2022-12-20T09:29:05;100731.91;;;11.61;100.00
15272;BME280;7737;51.578;7.268;2022-12-20T09:31:33;100737.91;;;11.65;100.00
15272;BME280;7737;51.578;7.268;2022-12-20T09:34:01;100724.84;;;11.60;100.00
15272;BME280;7737;51.578;7.268;2022-12-20T09:36:28;100743.09;;;11.68;100.00
15272;BME280;7737;51.578;7.268;2022-12-20T09:38:55;100732.84;;;11.78;100.00
15272;BME280;7737;51.578;7.268;2022-12-20T09:41:27;100733.31;;;11.69;100.00
15272;BME280;7737;51.578;7.268;2022-12-20T09:43:56;100742.88;;;11.73;100.00
15272;BME280;7737;51.578;7.268;2022-12-20T09:46:23;100746.72;;;11.67;100.00
15272;BME280;7737;51.578;7.268;2022-12-20T09:48:52;100749.00;;;11.75;100.00
15272;BME280;7737;51.578;7.268;2022-12-20T09:51:38;100742.13;;;11.86;100.00
15272;BME280;7737;51.578;7.268;2022-12-20T09:54:17;100747.28;;;11.89;100.00
15272;BME280;7737;51.578;7.268;2022-12-20T09:56:53;100750.38;;;11.82;100.00
15272;BME280;7737;51.578;7.268;2022-12-20T09:59:22;100746.78;;;11.83;100.00
15272;BME280;7737;51.578;7.268;2022-12-20T10:01:49;100743.09;;;11.85;100.00
15272;BME280;7737;51.578;7.268;2022-12-20T10:04:20;100737.81;;;11.84;100.00
15272;BME280;7737;51.578;7.268;2022-12-20T10:06:57;100743.16;;;11.84;100.00
15272;BME280;7737;51.578;7.268;2022-12-20T10:09:53;100738.78;;;11.83;100.00
15272;BME280;7737;51.578;7.268;2022-12-20T10:12:34;100755.38;;;11.88;100.00
15272;BME280;7737;51.578;7.268;2022-12-20T10:15:17;100743.91;;;11.70;100.00
15272;BME280;7737;51.578;7.268;2022-12-20T10:17:52;100737.75;;;11.85;100.00
15272;BME280;7737;51.578;7.268;2022-12-20T10:20:40;100727.88;;;11.87;100.00
15272;BME280;7737;51.578;7.268;2022-12-20T10:23:16;100727.34;;;11.81;100.00
15272;BME280;7737;51.578;7.268;2022-12-20T10:25:49;100726.91;;;11.73;100.00
15272;BME280;7737;51.578;7.268;2022-12-20T10:28:15;100723.91;;;11.79;100.00
15272;BME280;7737;51.578;7.268;2022-12-20T10:30:42;100722.50;;;11.72;100.00
15272;BME280;7737;51.578;7.268;2022-12-20T10:33:17;100715.13;;;11.77;100.00
15272;BME280;7737;51.578;7.268;2022-12-20T10:35:47;100713.41;;;11.76;100.00
15272;BME280;7737;51.578;7.268;2022-12-20T10:38:15;100701.13;;;11.73;100.00
15272;BME280;7737;51.578;7.268;2022-12-20T10:40:43;100695.88;;;11.72;100.00
15272;BME280;7737;51.578;7.268;2022-12-20T10:43:15;100693.50;;;11.83;100.00
15272;BME280;7737;51.578;7.268;2022-12-20T10:45:43;100691.59;;;11.85;100.00
15272;BME280;7737;51.578;7.268;2022-12-20T10:48:25;100690.41;;;11.90;100.00
15272;BME280;7737;51.578;7.268;2022-12-20T10:50:58;100679.75;;;11.90;100.00
15272;BME280;7737;51.578;7.268;2022-12-20T10:53:25;100677.00;;;11.92;100.00
15272;BME280;7737;51.578;7.268;2022-12-20T10:56:11;100669.78;;;11.94;100.00
15272;BME280;7737;51.578;7.268;2022-12-20T10:58:38;100674.59;;;12.03;100.00
15272;BME280;7737;51.578;7.268;2022-12-20T11:01:11;100679.75;;;12.06;100.00
15272;BME280;7737;51.578;7.268;2022-12-20T11:03:53;100668.94;;;12.09;100.00
15272;BME280;7737;51.578;7.268;2022-12-20T11:06:25;100659.63;;;12.16;100.00
15272;BME280;7737;51.578;7.268;2022-12-20T11:08:51;100660.81;;;12.26;100.00
15272;BME280;7737;51.578;7.268;2022-12-20T11:11:19;100650.34;;;12.23;100.00
15272;BME280;7737;51.578;7.268;2022-12-20T11:13:49;100647.44;;;12.12;100.00
15272;BME280;7737;51.578;7.268;2022-12-20T11:16:28;100645.03;;;12.23;100.00
15272;BME280;7737;51.578;7.268;2022-12-20T11:19:15;100641.56;;;12.21;100.00
15272;BME280;7737;51.578;7.268;2022-12-20T11:21:58;100644.34;;;12.19;100.00
15272;BME280;7737;51.578;7.268;2022-12-20T11:24:31;100621.88;;;12.23;100.00
15272;BME280;7737;51.578;7.268;2022-12-20T11:27:11;100621.81;;;12.25;100.00
15272;BME280;7737;51.578;7.268;2022-12-20T11:30:07;100618.00;;;12.29;100.00
15272;BME280;7737;51.578;7.268;2022-12-20T11:32:58;100616.09;;;12.31;100.00
15272;BME280;7737;51.578;7.268;2022-12-20T11:35:38;100602.53;;;12.36;100.00
15272;BME280;7737;51.578;7.268;2022-12-20T11:38:20;100599.41;;;12.43;100.00
15272;BME280;7737;51.578;7.268;2022-12-20T11:40:54;100594.94;;;12.44;100.00
15272;BME280;7737;51.578;7.268;2022-12-20T11:43:35;100598.81;;;12.38;100.00
15272;BME280;7737;51.578;7.268;2022-12-20T11:46:22;100605.44;;;12.31;100.00
15272;BME280;7737;51.578;7.268;2022-12-20T11:49:15;100598.31;;;12.32;100.00
15272;BME280;7737;51.578;7.268;2022-12-20T11:51:51;100603.97;;;12.41;100.00
15272;BME280;7737;51.578;7.268;2022-12-20T11:54:27;100599.34;;;12.29;100.00
15272;BME280;7737;51.578;7.268;2022-12-20T11:56:58;100596.69;;;12.29;100.00
15272;BME280;7737;51.578;7.268;2022-12-20T11:59:37;100592.09;;;12.31;100.00
15272;BME280;7737;51.578;7.268;2022-12-20T12:02:10;100580.91;;;12.40;100.00
15272;BME280;7737;51.578;7.268;2022-12-20T12:04:41;100584.97;;;12.32;100.00
15272;BME280;7737;51.578;7.268;2022-12-20T12:07:14;100587.63;;;12.32;100.00
15272;BME280;7737;51.578;7.268;2022-12-20T12:09:50;100582.22;;;12.33;100.00
15272;BME280;7737;51.578;7.268;2022-12-20T12:12:24;100572.34;;;12.35;100.00
15272;BME280;7737;51.578;7.268;2022-12-20T12:14:58;100576.81;;;12.35;100.00
15272;BME280;7737;51.578;7.268;2022-12-20T12:17:30;100578.97;;;12.28;100.00
15272;BME280;7737;51.578;7.268;2022-12-20T12:20:08;100576.31;;;12.28;100.00
15272;BME280;7737;51.578;7.268;2022-12-20T12:22:41;100579.38;;;12.36;100.00
15272;BME280;7737;51.578;7.268;2022-12-20T12:25:15;100584.31;;;12.28;100.00
15272;BME280;7737;51.578;7.268;2022-12-20T12:27:42;100583.47;;;12.42;100.00
15272;BME280;7737;51.578;7.268;2022-12-20T12:30:12;100578.06;;;12.43;100.00
15272;BME280;7737;51.578;7.268;2022-12-20T12:32:46;100585.66;;;12.35;100.00
15272;BME280;7737;51.578;7.268;2022-12-20T12:35:33;100577.38;;;12.40;100.00
15272;BME280;7737;51.578;7.268;2022-12-20T12:38:15;100583.59;;;12.40;100.00
15272;BME280;7737;51.578;7.268;2022-12-20T12:43:44;100566.25;;;12.33;100.00
15272;BME280;7737;51.578;7.268;2022-12-20T12:46:16;100571.88;;;12.43;100.00
15272;BME280;7737;51.578;7.268;2022-12-20T12:48:48;100571.59;;;12.47;100.00
15272;BME280;7737;51.578;7.268;2022-12-20T12:51:23;100565.78;;;12.41;100.00
15272;BME280;7737;51.578;7.268;2022-12-20T12:53:52;100563.97;;;12.41;100.00
15272;BME280;7737;51.578;7.268;2022-12-20T12:56:37;100563.59;;;12.47;100.00
15272;BME280;7737;51.578;7.268;2022-12-20T12:59:19;100567.13;;;12.48;100.00
15272;BME280;7737;51.578;7.268;2022-12-20T13:01:48;100558.25;;;12.47;100.00
15272;BME280;7737;51.578;7.268;2022-12-20T13:04:23;100556.16;;;12.52;100.00
15272;BME280;7737;51.578;7.268;2022-12-20T13:09:46;100550.59;;;12.57;100.00
15272;BME280;7737;51.578;7.268;2022-12-20T13:12:54;100556.31;;;12.65;100.00
15272;BME280;7737;51.578;7.268;2022-12-20T13:15:51;100548.56;;;12.60;100.00
15272;BME280;7737;51.578;7.268;2022-12-20T13:18:29;100566.47;;;12.58;100.00